Terri L. Brusco — WDC3034 — position and weather

sailwx.info

Track history (hours):
 
Tides and Currents Weather Stations Pressure Air Temp Water Temp Dewpoint Dewpoint Depression Visibility Wind Speed Wind Dir Waves Ship Positions

Terri L. Brusco

Owner: Brusco Tug & Barge, Inc., Longview, WA. More information available from US FCC via Universal Licensing System and Coast Guard Vessel Documentation Center.

Last reported at 2017-Feb-20 04:11 UTC. Time now 2017-Feb-23 00:25 UTC.
Position N 38°07' W 121°33'.

Length 21 m; draft 4 m.

Type: Tow > 200 m length. MMSI: 367001830.

Date/timePositionNaut miles runAvg speedWind from/ knotsBaromVisibWave heightAir tempDewpointWater temp
2017-Feb-20 04:11N 38°07' W 121°33'2 2.1
2017-Feb-20 03:25N 38°07' W 121°35'1 1.4
2017-Feb-20 02:34N 38°06' W 121°34'7 2.0
2017-Feb-19 23:08N 38°10' W 121°41'6 1.6
2017-Feb-19 19:10N 38°07' W 121°34'1 0.7
2017-Feb-19 18:25N 38°07' W 121°33'5 2.2
2017-Feb-19 16:13N 38°06' W 121°39'3 1.7
2017-Feb-19 14:29N 38°03' W 121°41'0 0.0
2017-Feb-19 07:31N 38°03' W 121°41'26 2.4
2017-Feb-18 20:31N 38°04' W 122°15'8 7.8
2017-Feb-18 19:33N 38°01' W 122°24'7 7.5
2017-Feb-18 18:33N 37°53' W 122°25'8 8.5
2017-Feb-18 17:33N 37°48' W 122°17'2 2.4
2017-Feb-18 16:33N 37°46' W 122°15'0 0.0
2017-Feb-18 15:33N 37°46' W 122°15'0 0.0
2017-Feb-18 14:33N 37°46' W 122°15'0 0.0
2017-Feb-18 13:33N 37°46' W 122°15'0 0.0
2017-Feb-18 12:33N 37°46' W 122°15'0 0.0
2017-Feb-18 11:33N 37°46' W 122°15'0 0.0
2017-Feb-18 10:33N 37°46' W 122°15'0 0.0
2017-Feb-18 09:33N 37°46' W 122°15'0 0.0
2017-Feb-18 08:33N 37°46' W 122°15'0 0.0
2017-Feb-18 07:33N 37°46' W 122°15'0 0.0
2017-Feb-18 06:33N 37°46' W 122°15'0 0.0
2017-Feb-18 05:33N 37°46' W 122°15'0 0.0
2017-Feb-18 04:33N 37°46' W 122°15'0 0.0
2017-Feb-18 03:33N 37°46' W 122°15'0 0.0
2017-Feb-18 02:33N 37°46' W 122°15'0 0.0
2017-Feb-18 01:33N 37°46' W 122°15'2 1.6
2017-Feb-18 00:33N 37°47' W 122°16'3 3.5
2017-Feb-17 23:33N 37°48' W 122°20'5 5.0
2017-Feb-17 22:33N 37°46' W 122°15'0 0.0
2017-Feb-17 21:33N 37°46' W 122°15'0 0.0
2017-Feb-17 20:33N 37°46' W 122°15'0 0.0
2017-Feb-17 19:33N 37°46' W 122°15'1 0.8
2017-Feb-17 18:33N 37°47' W 122°15'5 5.2
2017-Feb-17 17:33N 37°49' W 122°21'6 6.1
2017-Feb-17 16:33N 37°54' W 122°25'7 7.3
2017-Feb-17 15:33N 38°01' W 122°23'7 7.1
2017-Feb-17 14:33N 38°04' W 122°14'22 5.6
2017-Feb-17 10:33N 38°02' W 121°46'8 5.4
2017-Feb-17 09:06N 38°06' W 121°37'2 2.8
2017-Feb-17 08:20N 38°07' W 121°35'2 2.4
2017-Feb-17 07:26N 38°09' W 121°34'2 0.2
2017-Feb-17 00:14N 38°07' W 121°35'9 4.3
2017-Feb-16 22:16N 38°02' W 121°43'8 1.6
2017-Feb-16 17:28N 38°06' W 121°35'3 2.8
2017-Feb-16 16:30N 38°09' W 121°34'2 2.3
2017-Feb-16 15:33N 38°07' W 121°31'2 2.3
2017-Feb-16 14:33N 38°06' W 121°34'6 5.8
2017-Feb-16 13:25N 38°03' W 121°41'2 2.6
2017-Feb-16 12:33N 38°02' W 121°44'16 5.1
2017-Feb-16 09:21N 38°03' W 122°04'5 4.8
2017-Feb-16 08:21N 38°03' W 122°10'4 4.7
2017-Feb-16 07:33N 38°04' W 122°15'4 4.4
2017-Feb-16 06:33N 38°02' W 122°20'5 4.7
2017-Feb-16 05:33N 37°60' W 122°25'1 1.2
2017-Feb-16 04:31N 37°59' W 122°27'3 2.8
2017-Feb-16 03:33N 37°57' W 122°26'6 5.9
2017-Feb-16 02:33N 37°51' W 122°23'0 0.3
2017-Feb-16 01:33N 37°51' W 122°23'8 8.4
2017-Feb-16 00:33N 37°59' W 122°27'0 0.0
2017-Feb-15 23:33N 37°59' W 122°27'0 0.1
2017-Feb-15 22:33N 37°59' W 122°27'0 0.1
2017-Feb-15 21:33N 37°59' W 122°27'0 0.0
2017-Feb-15 20:33N 37°59' W 122°27'0 0.0
2017-Feb-15 19:33N 37°59' W 122°27'0 0.1
2017-Feb-15 18:33N 37°59' W 122°27'1 0.8
2017-Feb-15 17:33N 37°59' W 122°26'10 9.9
2017-Feb-15 16:33N 38°04' W 122°15'23 7.7
2017-Feb-15 13:33N 38°02' W 121°45'6 2.8
2017-Feb-15 11:33N 38°06' W 121°40'4 4.3
2017-Feb-15 10:33N 38°02' W 121°43'4 4.5
2017-Feb-15 09:33N 38°01' W 121°49'12 1.1
2017-Feb-14 22:25N 38°07' W 121°35'2 0.4
2017-Feb-14 17:31N 38°09' W 121°34'3 2.7
2017-Feb-14 16:33N 38°06' W 121°34'6 5.2
2017-Feb-14 15:29N 38°04' W 121°41'4 2.0
2017-Feb-14 13:16N 38°06' W 121°35'2 2.9
2017-Feb-14 12:31N 38°08' W 121°34'1 0.2
2017-Feb-14 08:33N 38°08' W 121°33'2 2.0
2017-Feb-14 07:33N 38°07' W 121°35'2 1.8
2017-Feb-14 06:22N 38°06' W 121°37'3 3.5
2017-Feb-14 05:25N 38°04' W 121°41'22 2.5
2017-Feb-13 20:33N 38°02' W 122°09'6 3.9
2017-Feb-13 19:08N 38°04' W 122°02'6 9.8
2017-Feb-13 18:33N 38°03' W 121°55'6 1.1
2017-Feb-13 13:30N 38°04' W 122°02'5 4.5
2017-Feb-13 12:25N 38°02' W 122°08'0 0.4
2017-Feb-13 11:19N 38°02' W 122°08'0 0.1
2017-Feb-13 10:33N 38°02' W 122°08'0 0.0
2017-Feb-13 09:30N 38°02' W 122°08'0 0.0
2017-Feb-13 08:33N 38°02' W 122°08'0 0.2
2017-Feb-13 07:23N 38°02' W 122°08'5 0.8
2017-Feb-13 01:21N 38°04' W 122°02'5 4.5
2017-Feb-13 00:18N 38°02' W 122°08'2 2.0
2017-Feb-12 23:33N 38°02' W 122°10'6 5.5
2017-Feb-12 22:33N 38°03' W 122°17'8 7.2
2017-Feb-12 21:30N 37°60' W 122°25'1 1.3
2017-Feb-12 20:33N 37°59' W 122°26'7 7.5
2017-Feb-12 19:33N 37°52' W 122°25'5 5.3
2017-Feb-12 18:33N 37°49' W 122°19'2 2.1
2017-Feb-12 17:33N 37°49' W 122°21'1110.6
2017-Feb-12 16:32N 37°59' W 122°25'1111.4
2017-Feb-12 15:33N 38°03' W 122°12'29 0.6
2017-Feb-10 18:20N 38°06' W 121°35'3 3.4
2017-Feb-10 17:28N 38°07' W 121°32'  
Track history (hours):
 
Tides and Currents Weather Stations Pressure Air Temp Water Temp Dewpoint Dewpoint Depression Visibility Wind Speed Wind Dir Waves Ship Positions

Terri L. Brusco

Owner: Brusco Tug & Barge, Inc., Longview, WA. More information available from US FCC via Universal Licensing System and Coast Guard Vessel Documentation Center.

Last reported at 2017-Feb-20 04:11 UTC. Time now 2017-Feb-23 00:25 UTC.
Position N 38°07' W 121°33'.

Length 21 m; draft 4 m.

Type: Tow > 200 m length. MMSI: 367001830.

Date/timePositionNaut miles runAvg speedWind from/ knotsBaromVisibWave heightAir tempDewpointWater temp
2017-Feb-20 04:11N 38°07' W 121°33'2 2.1
2017-Feb-20 03:25N 38°07' W 121°35'1 1.4
2017-Feb-20 02:34N 38°06' W 121°34'7 2.0
2017-Feb-19 23:08N 38°10' W 121°41'6 1.6
2017-Feb-19 19:10N 38°07' W 121°34'1 0.7
2017-Feb-19 18:25N 38°07' W 121°33'5 2.2
2017-Feb-19 16:13N 38°06' W 121°39'3 1.7
2017-Feb-19 14:29N 38°03' W 121°41'0 0.0
2017-Feb-19 07:31N 38°03' W 121°41'26 2.4
2017-Feb-18 20:31N 38°04' W 122°15'8 7.8
2017-Feb-18 19:33N 38°01' W 122°24'7 7.5
2017-Feb-18 18:33N 37°53' W 122°25'8 8.5
2017-Feb-18 17:33N 37°48' W 122°17'2 2.4
2017-Feb-18 16:33N 37°46' W 122°15'0 0.0
2017-Feb-18 15:33N 37°46' W 122°15'0 0.0
2017-Feb-18 14:33N 37°46' W 122°15'0 0.0
2017-Feb-18 13:33N 37°46' W 122°15'0 0.0
2017-Feb-18 12:33N 37°46' W 122°15'0 0.0
2017-Feb-18 11:33N 37°46' W 122°15'0 0.0
2017-Feb-18 10:33N 37°46' W 122°15'0 0.0
2017-Feb-18 09:33N 37°46' W 122°15'0 0.0
2017-Feb-18 08:33N 37°46' W 122°15'0 0.0
2017-Feb-18 07:33N 37°46' W 122°15'0 0.0
2017-Feb-18 06:33N 37°46' W 122°15'0 0.0
2017-Feb-18 05:33N 37°46' W 122°15'0 0.0
2017-Feb-18 04:33N 37°46' W 122°15'0 0.0
2017-Feb-18 03:33N 37°46' W 122°15'0 0.0
2017-Feb-18 02:33N 37°46' W 122°15'0 0.0
2017-Feb-18 01:33N 37°46' W 122°15'2 1.6
2017-Feb-18 00:33N 37°47' W 122°16'3 3.5
2017-Feb-17 23:33N 37°48' W 122°20'5 5.0
2017-Feb-17 22:33N 37°46' W 122°15'0 0.0
2017-Feb-17 21:33N 37°46' W 122°15'0 0.0
2017-Feb-17 20:33N 37°46' W 122°15'0 0.0
2017-Feb-17 19:33N 37°46' W 122°15'1 0.8
2017-Feb-17 18:33N 37°47' W 122°15'5 5.2
2017-Feb-17 17:33N 37°49' W 122°21'6 6.1
2017-Feb-17 16:33N 37°54' W 122°25'7 7.3
2017-Feb-17 15:33N 38°01' W 122°23'7 7.1
2017-Feb-17 14:33N 38°04' W 122°14'22 5.6
2017-Feb-17 10:33N 38°02' W 121°46'8 5.4
2017-Feb-17 09:06N 38°06' W 121°37'2 2.8
2017-Feb-17 08:20N 38°07' W 121°35'2 2.4
2017-Feb-17 07:26N 38°09' W 121°34'2 0.2
2017-Feb-17 00:14N 38°07' W 121°35'9 4.3
2017-Feb-16 22:16N 38°02' W 121°43'8 1.6
2017-Feb-16 17:28N 38°06' W 121°35'3 2.8
2017-Feb-16 16:30N 38°09' W 121°34'2 2.3
2017-Feb-16 15:33N 38°07' W 121°31'2 2.3
2017-Feb-16 14:33N 38°06' W 121°34'6 5.8
2017-Feb-16 13:25N 38°03' W 121°41'2 2.6
2017-Feb-16 12:33N 38°02' W 121°44'16 5.1
2017-Feb-16 09:21N 38°03' W 122°04'5 4.8
2017-Feb-16 08:21N 38°03' W 122°10'4 4.7
2017-Feb-16 07:33N 38°04' W 122°15'4 4.4
2017-Feb-16 06:33N 38°02' W 122°20'5 4.7
2017-Feb-16 05:33N 37°60' W 122°25'1 1.2
2017-Feb-16 04:31N 37°59' W 122°27'3 2.8
2017-Feb-16 03:33N 37°57' W 122°26'6 5.9
2017-Feb-16 02:33N 37°51' W 122°23'0 0.3
2017-Feb-16 01:33N 37°51' W 122°23'8 8.4
2017-Feb-16 00:33N 37°59' W 122°27'0 0.0
2017-Feb-15 23:33N 37°59' W 122°27'0 0.1
2017-Feb-15 22:33N 37°59' W 122°27'0 0.1
2017-Feb-15 21:33N 37°59' W 122°27'0 0.0
2017-Feb-15 20:33N 37°59' W 122°27'0 0.0
2017-Feb-15 19:33N 37°59' W 122°27'0 0.1
2017-Feb-15 18:33N 37°59' W 122°27'1 0.8
2017-Feb-15 17:33N 37°59' W 122°26'10 9.9
2017-Feb-15 16:33N 38°04' W 122°15'23 7.7
2017-Feb-15 13:33N 38°02' W 121°45'6 2.8
2017-Feb-15 11:33N 38°06' W 121°40'4 4.3
2017-Feb-15 10:33N 38°02' W 121°43'4 4.5
2017-Feb-15 09:33N 38°01' W 121°49'12 1.1
2017-Feb-14 22:25N 38°07' W 121°35'2 0.4
2017-Feb-14 17:31N 38°09' W 121°34'3 2.7
2017-Feb-14 16:33N 38°06' W 121°34'6 5.2
2017-Feb-14 15:29N 38°04' W 121°41'4 2.0
2017-Feb-14 13:16N 38°06' W 121°35'2 2.9
2017-Feb-14 12:31N 38°08' W 121°34'1 0.2
2017-Feb-14 08:33N 38°08' W 121°33'2 2.0
2017-Feb-14 07:33N 38°07' W 121°35'2 1.8
2017-Feb-14 06:22N 38°06' W 121°37'3 3.5
2017-Feb-14 05:25N 38°04' W 121°41'22 2.5
2017-Feb-13 20:33N 38°02' W 122°09'6 3.9
2017-Feb-13 19:08N 38°04' W 122°02'6 9.8
2017-Feb-13 18:33N 38°03' W 121°55'6 1.1
2017-Feb-13 13:30N 38°04' W 122°02'5 4.5
2017-Feb-13 12:25N 38°02' W 122°08'0 0.4
2017-Feb-13 11:19N 38°02' W 122°08'0 0.1
2017-Feb-13 10:33N 38°02' W 122°08'0 0.0
2017-Feb-13 09:30N 38°02' W 122°08'0 0.0
2017-Feb-13 08:33N 38°02' W 122°08'0 0.2
2017-Feb-13 07:23N 38°02' W 122°08'5 0.8
2017-Feb-13 01:21N 38°04' W 122°02'5 4.5
2017-Feb-13 00:18N 38°02' W 122°08'2 2.0
2017-Feb-12 23:33N 38°02' W 122°10'6 5.5
2017-Feb-12 22:33N 38°03' W 122°17'8 7.2
2017-Feb-12 21:30N 37°60' W 122°25'1 1.3
2017-Feb-12 20:33N 37°59' W 122°26'7 7.5
2017-Feb-12 19:33N 37°52' W 122°25'5 5.3
2017-Feb-12 18:33N 37°49' W 122°19'2 2.1
2017-Feb-12 17:33N 37°49' W 122°21'1110.6
2017-Feb-12 16:32N 37°59' W 122°25'1111.4
2017-Feb-12 15:33N 38°03' W 122°12'29 0.6
2017-Feb-10 18:20N 38°06' W 121°35'3 3.4
2017-Feb-10 17:28N 38°07' W 121°32'  

Dump ship's entire track history